sensor_id;sensor_type;location;lat;lon;timestamp;P1;durP1;ratioP1;P2;durP2;ratioP2
37051;SDS011;22964;52.272;13.356;2022-07-22T00:01:50;5.53;;;4.18;;
37051;SDS011;22964;52.272;13.356;2022-07-22T00:04:16;5.53;;;3.90;;
37051;SDS011;22964;52.272;13.356;2022-07-22T00:06:42;5.25;;;4.28;;
37051;SDS011;22964;52.272;13.356;2022-07-22T00:09:08;6.43;;;3.90;;
37051;SDS011;22964;52.272;13.356;2022-07-22T00:11:34;4.32;;;3.90;;
37051;SDS011;22964;52.272;13.356;2022-07-22T00:14:00;4.72;;;3.83;;
37051;SDS011;22964;52.272;13.356;2022-07-22T00:16:26;5.82;;;3.92;;
37051;SDS011;22964;52.272;13.356;2022-07-22T00:18:52;5.72;;;3.88;;
37051;SDS011;22964;52.272;13.356;2022-07-22T00:21:17;4.03;;;3.50;;
37051;SDS011;22964;52.272;13.356;2022-07-22T00:23:43;5.28;;;3.70;;
37051;SDS011;22964;52.272;13.356;2022-07-22T00:26:09;5.68;;;3.20;;
37051;SDS011;22964;52.272;13.356;2022-07-22T00:28:35;3.90;;;3.30;;
37051;SDS011;22964;52.272;13.356;2022-07-22T00:31:01;4.45;;;3.35;;
37051;SDS011;22964;52.272;13.356;2022-07-22T00:33:27;4.10;;;3.33;;
37051;SDS011;22964;52.272;13.356;2022-07-22T00:35:53;4.07;;;3.38;;
37051;SDS011;22964;52.272;13.356;2022-07-22T00:38:19;4.22;;;3.20;;
37051;SDS011;22964;52.272;13.356;2022-07-22T00:40:44;5.65;;;3.30;;
37051;SDS011;22964;52.272;13.356;2022-07-22T00:43:10;4.43;;;3.20;;
37051;SDS011;22964;52.272;13.356;2022-07-22T00:45:37;4.25;;;3.03;;
37051;SDS011;22964;52.272;13.356;2022-07-22T00:48:03;4.97;;;2.80;;
37051;SDS011;22964;52.272;13.356;2022-07-22T00:50:29;4.45;;;2.97;;
37051;SDS011;22964;52.272;13.356;2022-07-22T00:52:54;6.50;;;3.10;;
37051;SDS011;22964;52.272;13.356;2022-07-22T00:55:21;4.70;;;3.33;;
37051;SDS011;22964;52.272;13.356;2022-07-22T00:57:47;4.60;;;2.83;;
37051;SDS011;22964;52.272;13.356;2022-07-22T01:00:15;4.03;;;3.03;;
37051;SDS011;22964;52.272;13.356;2022-07-22T01:02:43;3.60;;;2.97;;
37051;SDS011;22964;52.272;13.356;2022-07-22T01:05:09;3.80;;;2.58;;
37051;SDS011;22964;52.272;13.356;2022-07-22T01:07:36;4.65;;;2.85;;
37051;SDS011;22964;52.272;13.356;2022-07-22T01:10:02;4.25;;;3.00;;
37051;SDS011;22964;52.272;13.356;2022-07-22T01:12:29;4.68;;;2.58;;
37051;SDS011;22964;52.272;13.356;2022-07-22T01:14:54;3.85;;;2.78;;
37051;SDS011;22964;52.272;13.356;2022-07-22T01:17:20;4.35;;;3.10;;
37051;SDS011;22964;52.272;13.356;2022-07-22T01:19:46;3.28;;;2.80;;
37051;SDS011;22964;52.272;13.356;2022-07-22T01:22:12;4.70;;;2.75;;
37051;SDS011;22964;52.272;13.356;2022-07-22T01:24:37;3.58;;;2.55;;
37051;SDS011;22964;52.272;13.356;2022-07-22T01:27:03;3.22;;;2.53;;
37051;SDS011;22964;52.272;13.356;2022-07-22T01:29:29;3.22;;;2.50;;
37051;SDS011;22964;52.272;13.356;2022-07-22T01:31:55;2.95;;;2.40;;
37051;SDS011;22964;52.272;13.356;2022-07-22T01:34:22;2.90;;;2.28;;
37051;SDS011;22964;52.272;13.356;2022-07-22T01:36:48;3.25;;;2.50;;
37051;SDS011;22964;52.272;13.356;2022-07-22T01:39:14;3.28;;;2.50;;
37051;SDS011;22964;52.272;13.356;2022-07-22T01:41:41;3.97;;;2.40;;
37051;SDS011;22964;52.272;13.356;2022-07-22T01:44:10;3.10;;;2.50;;
37051;SDS011;22964;52.272;13.356;2022-07-22T01:46:37;2.85;;;2.50;;
37051;SDS011;22964;52.272;13.356;2022-07-22T01:49:03;3.60;;;2.47;;
37051;SDS011;22964;52.272;13.356;2022-07-22T01:51:33;3.53;;;2.50;;
37051;SDS011;22964;52.272;13.356;2022-07-22T01:53:59;2.70;;;2.10;;
37051;SDS011;22964;52.272;13.356;2022-07-22T01:56:25;3.67;;;2.38;;
37051;SDS011;22964;52.272;13.356;2022-07-22T01:58:51;3.47;;;2.25;;
37051;SDS011;22964;52.272;13.356;2022-07-22T02:01:22;2.90;;;2.38;;
37051;SDS011;22964;52.272;13.356;2022-07-22T02:03:49;4.55;;;2.63;;
37051;SDS011;22964;52.272;13.356;2022-07-22T02:06:15;3.40;;;2.30;;
37051;SDS011;22964;52.272;13.356;2022-07-22T02:08:41;3.63;;;2.38;;
37051;SDS011;22964;52.272;13.356;2022-07-22T02:11:18;2.85;;;2.28;;
37051;SDS011;22964;52.272;13.356;2022-07-22T02:13:53;4.40;;;2.30;;
37051;SDS011;22964;52.272;13.356;2022-07-22T02:16:19;3.10;;;2.40;;
37051;SDS011;22964;52.272;13.356;2022-07-22T02:18:48;3.40;;;2.50;;
37051;SDS011;22964;52.272;13.356;2022-07-22T02:21:14;3.13;;;2.60;;
37051;SDS011;22964;52.272;13.356;2022-07-22T02:23:39;3.28;;;2.55;;
37051;SDS011;22964;52.272;13.356;2022-07-22T02:26:05;3.05;;;2.42;;
37051;SDS011;22964;52.272;13.356;2022-07-22T02:28:31;3.45;;;2.50;;
37051;SDS011;22964;52.272;13.356;2022-07-22T02:30:56;3.10;;;2.70;;
37051;SDS011;22964;52.272;13.356;2022-07-22T02:33:22;3.28;;;2.63;;
37051;SDS011;22964;52.272;13.356;2022-07-22T02:35:48;3.40;;;3.00;;
37051;SDS011;22964;52.272;13.356;2022-07-22T02:38:13;4.00;;;3.28;;
37051;SDS011;22964;52.272;13.356;2022-07-22T02:40:39;3.53;;;3.08;;
37051;SDS011;22964;52.272;13.356;2022-07-22T02:43:05;5.38;;;3.38;;
37051;SDS011;22964;52.272;13.356;2022-07-22T02:45:32;5.00;;;3.65;;
37051;SDS011;22964;52.272;13.356;2022-07-22T02:47:59;4.28;;;3.38;;
37051;SDS011;22964;52.272;13.356;2022-07-22T02:50:25;3.88;;;3.42;;
37051;SDS011;22964;52.272;13.356;2022-07-22T02:52:51;3.97;;;3.35;;
37051;SDS011;22964;52.272;13.356;2022-07-22T02:55:18;3.90;;;3.08;;
37051;SDS011;22964;52.272;13.356;2022-07-22T02:57:45;4.57;;;3.50;;
37051;SDS011;22964;52.272;13.356;2022-07-22T03:00:12;4.20;;;3.53;;
37051;SDS011;22964;52.272;13.356;2022-07-22T03:02:39;3.95;;;3.08;;
37051;SDS011;22964;52.272;13.356;2022-07-22T03:05:05;4.30;;;3.47;;
37051;SDS011;22964;52.272;13.356;2022-07-22T03:07:36;4.45;;;3.20;;
37051;SDS011;22964;52.272;13.356;2022-07-22T03:10:02;4.75;;;3.50;;
37051;SDS011;22964;52.272;13.356;2022-07-22T03:12:29;3.78;;;3.33;;
37051;SDS011;22964;52.272;13.356;2022-07-22T03:14:55;4.60;;;3.80;;
37051;SDS011;22964;52.272;13.356;2022-07-22T03:17:21;5.28;;;3.30;;
37051;SDS011;22964;52.272;13.356;2022-07-22T03:19:46;4.65;;;3.55;;
37051;SDS011;22964;52.272;13.356;2022-07-22T03:22:12;4.90;;;3.67;;
37051;SDS011;22964;52.272;13.356;2022-07-22T03:24:38;4.32;;;3.70;;
37051;SDS011;22964;52.272;13.356;2022-07-22T03:27:03;4.25;;;3.50;;
37051;SDS011;22964;52.272;13.356;2022-07-22T03:29:30;5.15;;;3.55;;
37051;SDS011;22964;52.272;13.356;2022-07-22T03:31:56;4.18;;;3.78;;
37051;SDS011;22964;52.272;13.356;2022-07-22T03:34:37;4.72;;;3.97;;
37051;SDS011;22964;52.272;13.356;2022-07-22T03:37:06;5.00;;;3.78;;
37051;SDS011;22964;52.272;13.356;2022-07-22T03:39:31;5.85;;;3.97;;
37051;SDS011;22964;52.272;13.356;2022-07-22T03:41:57;4.57;;;3.88;;
37051;SDS011;22964;52.272;13.356;2022-07-22T03:44:30;5.78;;;4.40;;
37051;SDS011;22964;52.272;13.356;2022-07-22T03:46:55;5.05;;;4.20;;
37051;SDS011;22964;52.272;13.356;2022-07-22T03:49:22;5.05;;;4.38;;
37051;SDS011;22964;52.272;13.356;2022-07-22T03:51:47;5.22;;;4.35;;
37051;SDS011;22964;52.272;13.356;2022-07-22T03:54:13;5.38;;;4.38;;
37051;SDS011;22964;52.272;13.356;2022-07-22T03:56:41;5.43;;;4.28;;
37051;SDS011;22964;52.272;13.356;2022-07-22T03:59:06;5.93;;;4.40;;
37051;SDS011;22964;52.272;13.356;2022-07-22T04:01:32;6.47;;;4.32;;
37051;SDS011;22964;52.272;13.356;2022-07-22T04:03:59;5.28;;;4.35;;
37051;SDS011;22964;52.272;13.356;2022-07-22T04:06:28;6.93;;;4.75;;
37051;SDS011;22964;52.272;13.356;2022-07-22T04:09:02;5.95;;;4.70;;
37051;SDS011;22964;52.272;13.356;2022-07-22T04:11:28;5.32;;;4.32;;
37051;SDS011;22964;52.272;13.356;2022-07-22T04:13:54;5.85;;;4.68;;
37051;SDS011;22964;52.272;13.356;2022-07-22T04:16:20;6.20;;;4.47;;
37051;SDS011;22964;52.272;13.356;2022-07-22T04:18:57;6.72;;;4.60;;
37051;SDS011;22964;52.272;13.356;2022-07-22T04:21:42;4.82;;;4.20;;
37051;SDS011;22964;52.272;13.356;2022-07-22T04:24:09;5.10;;;4.20;;
37051;SDS011;22964;52.272;13.356;2022-07-22T04:26:36;6.93;;;4.50;;
37051;SDS011;22964;52.272;13.356;2022-07-22T04:29:03;7.15;;;4.70;;
37051;SDS011;22964;52.272;13.356;2022-07-22T04:31:29;5.40;;;4.65;;
37051;SDS011;22964;52.272;13.356;2022-07-22T04:34:02;6.22;;;4.68;;
37051;SDS011;22964;52.272;13.356;2022-07-22T04:36:28;5.78;;;4.75;;
37051;SDS011;22964;52.272;13.356;2022-07-22T04:38:54;6.38;;;5.30;;
37051;SDS011;22964;52.272;13.356;2022-07-22T04:41:20;5.68;;;4.75;;
37051;SDS011;22964;52.272;13.356;2022-07-22T04:43:46;6.18;;;4.93;;
37051;SDS011;22964;52.272;13.356;2022-07-22T04:46:13;5.88;;;5.03;;
37051;SDS011;22964;52.272;13.356;2022-07-22T04:48:41;6.57;;;4.57;;
37051;SDS011;22964;52.272;13.356;2022-07-22T04:51:07;5.43;;;4.82;;
37051;SDS011;22964;52.272;13.356;2022-07-22T04:53:34;6.03;;;5.10;;
37051;SDS011;22964;52.272;13.356;2022-07-22T04:56:00;6.75;;;4.90;;
37051;SDS011;22964;52.272;13.356;2022-07-22T04:58:26;7.10;;;4.85;;
37051;SDS011;22964;52.272;13.356;2022-07-22T05:00:51;7.53;;;5.07;;
37051;SDS011;22964;52.272;13.356;2022-07-22T05:03:17;6.63;;;4.97;;
37051;SDS011;22964;52.272;13.356;2022-07-22T05:05:44;7.45;;;5.22;;
37051;SDS011;22964;52.272;13.356;2022-07-22T05:08:11;7.55;;;5.45;;
37051;SDS011;22964;52.272;13.356;2022-07-22T05:10:38;5.65;;;4.97;;
37051;SDS011;22964;52.272;13.356;2022-07-22T05:13:04;5.97;;;5.20;;
37051;SDS011;22964;52.272;13.356;2022-07-22T05:15:31;7.03;;;5.30;;
37051;SDS011;22964;52.272;13.356;2022-07-22T05:17:57;5.80;;;4.97;;
37051;SDS011;22964;52.272;13.356;2022-07-22T05:20:27;7.43;;;4.90;;
37051;SDS011;22964;52.272;13.356;2022-07-22T05:22:53;5.80;;;5.07;;
37051;SDS011;22964;52.272;13.356;2022-07-22T05:25:25;6.05;;;5.30;;
37051;SDS011;22964;52.272;13.356;2022-07-22T05:27:52;6.22;;;4.80;;
37051;SDS011;22964;52.272;13.356;2022-07-22T05:30:29;5.97;;;5.15;;
37051;SDS011;22964;52.272;13.356;2022-07-22T05:32:55;6.47;;;4.97;;
37051;SDS011;22964;52.272;13.356;2022-07-22T05:35:41;5.93;;;5.20;;
37051;SDS011;22964;52.272;13.356;2022-07-22T05:38:07;6.78;;;5.57;;
37051;SDS011;22964;52.272;13.356;2022-07-22T05:40:33;6.05;;;5.18;;
37051;SDS011;22964;52.272;13.356;2022-07-22T05:42:59;5.97;;;5.38;;
37051;SDS011;22964;52.272;13.356;2022-07-22T05:45:24;11.98;;;4.88;;
37051;SDS011;22964;52.272;13.356;2022-07-22T05:47:50;5.50;;;4.72;;
37051;SDS011;22964;52.272;13.356;2022-07-22T05:50:16;6.18;;;4.97;;
37051;SDS011;22964;52.272;13.356;2022-07-22T05:52:42;6.00;;;4.78;;
37051;SDS011;22964;52.272;13.356;2022-07-22T05:55:08;6.82;;;5.20;;
37051;SDS011;22964;52.272;13.356;2022-07-22T05:57:35;6.82;;;5.03;;
37051;SDS011;22964;52.272;13.356;2022-07-22T06:00:03;5.25;;;4.53;;
37051;SDS011;22964;52.272;13.356;2022-07-22T06:02:39;5.53;;;4.40;;
37051;SDS011;22964;52.272;13.356;2022-07-22T06:05:07;5.45;;;4.95;;
37051;SDS011;22964;52.272;13.356;2022-07-22T06:07:33;6.35;;;4.90;;
37051;SDS011;22964;52.272;13.356;2022-07-22T06:10:01;5.20;;;4.47;;
37051;SDS011;22964;52.272;13.356;2022-07-22T06:12:31;5.70;;;4.45;;
37051;SDS011;22964;52.272;13.356;2022-07-22T06:14:57;6.78;;;4.75;;
37051;SDS011;22964;52.272;13.356;2022-07-22T06:17:23;5.43;;;4.70;;
37051;SDS011;22964;52.272;13.356;2022-07-22T06:19:49;5.97;;;4.82;;
37051;SDS011;22964;52.272;13.356;2022-07-22T06:22:15;4.55;;;4.13;;
37051;SDS011;22964;52.272;13.356;2022-07-22T06:24:43;6.80;;;4.63;;
37051;SDS011;22964;52.272;13.356;2022-07-22T06:27:09;7.07;;;4.60;;
37051;SDS011;22964;52.272;13.356;2022-07-22T06:29:36;4.93;;;4.22;;
37051;SDS011;22964;52.272;13.356;2022-07-22T06:32:01;6.70;;;4.63;;
37051;SDS011;22964;52.272;13.356;2022-07-22T06:34:27;5.50;;;4.03;;
37051;SDS011;22964;52.272;13.356;2022-07-22T06:37:01;5.63;;;4.15;;
37051;SDS011;22964;52.272;13.356;2022-07-22T06:39:27;5.57;;;4.25;;
37051;SDS011;22964;52.272;13.356;2022-07-22T06:42:13;5.05;;;4.25;;
37051;SDS011;22964;52.272;13.356;2022-07-22T06:45:14;5.03;;;4.38;;
37051;SDS011;22964;52.272;13.356;2022-07-22T06:47:53;6.60;;;4.18;;
37051;SDS011;22964;52.272;13.356;2022-07-22T06:50:19;7.40;;;4.30;;
37051;SDS011;22964;52.272;13.356;2022-07-22T06:52:45;5.75;;;4.35;;
37051;SDS011;22964;52.272;13.356;2022-07-22T06:55:11;5.40;;;4.35;;
37051;SDS011;22964;52.272;13.356;2022-07-22T06:57:42;4.45;;;4.05;;
37051;SDS011;22964;52.272;13.356;2022-07-22T07:00:09;5.22;;;4.15;;
37051;SDS011;22964;52.272;13.356;2022-07-22T07:02:57;4.38;;;3.97;;
37051;SDS011;22964;52.272;13.356;2022-07-22T07:05:24;4.45;;;3.90;;
37051;SDS011;22964;52.272;13.356;2022-07-22T07:07:53;4.18;;;3.67;;
37051;SDS011;22964;52.272;13.356;2022-07-22T07:10:18;4.82;;;3.75;;
37051;SDS011;22964;52.272;13.356;2022-07-22T07:13:01;5.05;;;4.07;;
37051;SDS011;22964;52.272;13.356;2022-07-22T07:15:40;4.30;;;3.67;;
37051;SDS011;22964;52.272;13.356;2022-07-22T07:18:07;4.30;;;3.90;;
37051;SDS011;22964;52.272;13.356;2022-07-22T07:20:33;5.10;;;3.88;;
37051;SDS011;22964;52.272;13.356;2022-07-22T07:23:00;3.92;;;3.53;;
37051;SDS011;22964;52.272;13.356;2022-07-22T07:25:28;4.25;;;3.30;;
37051;SDS011;22964;52.272;13.356;2022-07-22T07:27:54;5.32;;;3.72;;
37051;SDS011;22964;52.272;13.356;2022-07-22T07:30:40;4.38;;;3.28;;
37051;SDS011;22964;52.272;13.356;2022-07-22T07:33:06;4.13;;;3.25;;
37051;SDS011;22964;52.272;13.356;2022-07-22T07:35:32;4.10;;;3.40;;
37051;SDS011;22964;52.272;13.356;2022-07-22T07:37:58;3.80;;;3.40;;
37051;SDS011;22964;52.272;13.356;2022-07-22T07:40:24;5.90;;;3.47;;
37051;SDS011;22964;52.272;13.356;2022-07-22T07:42:50;3.72;;;3.15;;
37051;SDS011;22964;52.272;13.356;2022-07-22T07:45:17;4.53;;;3.25;;
37051;SDS011;22964;52.272;13.356;2022-07-22T07:47:42;3.63;;;3.05;;
37051;SDS011;22964;52.272;13.356;2022-07-22T07:50:10;5.97;;;3.25;;
37051;SDS011;22964;52.272;13.356;2022-07-22T07:52:40;3.95;;;3.28;;
37051;SDS011;22964;52.272;13.356;2022-07-22T07:55:08;3.78;;;3.38;;
37051;SDS011;22964;52.272;13.356;2022-07-22T07:57:35;4.03;;;3.00;;
37051;SDS011;22964;52.272;13.356;2022-07-22T08:00:07;5.00;;;3.22;;
37051;SDS011;22964;52.272;13.356;2022-07-22T08:02:38;5.40;;;3.20;;
37051;SDS011;22964;52.272;13.356;2022-07-22T08:05:07;3.53;;;3.10;;
37051;SDS011;22964;52.272;13.356;2022-07-22T08:07:35;3.70;;;2.97;;
37051;SDS011;22964;52.272;13.356;2022-07-22T08:10:01;5.53;;;2.90;;
37051;SDS011;22964;52.272;13.356;2022-07-22T08:12:54;4.55;;;3.00;;
37051;SDS011;22964;52.272;13.356;2022-07-22T08:15:32;3.58;;;3.00;;
37051;SDS011;22964;52.272;13.356;2022-07-22T08:18:04;4.32;;;3.30;;
37051;SDS011;22964;52.272;13.356;2022-07-22T08:20:30;3.45;;;2.63;;
37051;SDS011;22964;52.272;13.356;2022-07-22T08:22:56;2.75;;;2.50;;
37051;SDS011;22964;52.272;13.356;2022-07-22T08:25:24;3.40;;;3.08;;
37051;SDS011;22964;52.272;13.356;2022-07-22T08:27:51;3.03;;;2.60;;
37051;SDS011;22964;52.272;13.356;2022-07-22T08:30:17;3.60;;;2.80;;
37051;SDS011;22964;52.272;13.356;2022-07-22T08:32:43;3.25;;;2.53;;
37051;SDS011;22964;52.272;13.356;2022-07-22T08:35:09;3.47;;;2.40;;
37051;SDS011;22964;52.272;13.356;2022-07-22T08:37:35;2.80;;;2.40;;
37051;SDS011;22964;52.272;13.356;2022-07-22T08:40:02;4.22;;;2.42;;
37051;SDS011;22964;52.272;13.356;2022-07-22T08:42:29;3.20;;;2.40;;
37051;SDS011;22964;52.272;13.356;2022-07-22T08:44:55;2.88;;;2.38;;
37051;SDS011;22964;52.272;13.356;2022-07-22T08:47:22;3.33;;;2.20;;
37051;SDS011;22964;52.272;13.356;2022-07-22T08:50:04;4.53;;;2.55;;
37051;SDS011;22964;52.272;13.356;2022-07-22T08:52:41;2.92;;;2.42;;
37051;SDS011;22964;52.272;13.356;2022-07-22T08:55:07;2.80;;;2.50;;
37051;SDS011;22964;52.272;13.356;2022-07-22T08:57:34;2.80;;;2.40;;
37051;SDS011;22964;52.272;13.356;2022-07-22T09:00:03;2.97;;;2.30;;
37051;SDS011;22964;52.272;13.356;2022-07-22T09:02:36;3.33;;;2.10;;
37051;SDS011;22964;52.272;13.356;2022-07-22T09:05:04;2.65;;;2.40;;
37051;SDS011;22964;52.272;13.356;2022-07-22T09:07:33;4.25;;;2.78;;
37051;SDS011;22964;52.272;13.356;2022-07-22T09:10:15;2.75;;;2.30;;
37051;SDS011;22964;52.272;13.356;2022-07-22T09:13:03;2.53;;;2.10;;
37051;SDS011;22964;52.272;13.356;2022-07-22T09:15:54;2.53;;;1.90;;
37051;SDS011;22964;52.272;13.356;2022-07-22T09:18:50;2.88;;;1.90;;
37051;SDS011;22964;52.272;13.356;2022-07-22T09:21:44;2.47;;;2.20;;
37051;SDS011;22964;52.272;13.356;2022-07-22T09:24:28;2.70;;;2.13;;
37051;SDS011;22964;52.272;13.356;2022-07-22T09:27:22;2.30;;;1.80;;
37051;SDS011;22964;52.272;13.356;2022-07-22T09:30:16;2.72;;;1.85;;
37051;SDS011;22964;52.272;13.356;2022-07-22T09:32:55;2.40;;;1.85;;
37051;SDS011;22964;52.272;13.356;2022-07-22T09:35:41;3.20;;;1.60;;
37051;SDS011;22964;52.272;13.356;2022-07-22T09:38:09;2.25;;;1.75;;
37051;SDS011;22964;52.272;13.356;2022-07-22T09:40:38;2.50;;;1.70;;
37051;SDS011;22964;52.272;13.356;2022-07-22T09:43:07;11.07;;;1.90;;
37051;SDS011;22964;52.272;13.356;2022-07-22T09:45:48;2.58;;;2.08;;
37051;SDS011;22964;52.272;13.356;2022-07-22T09:48:17;2.40;;;1.90;;
37051;SDS011;22964;52.272;13.356;2022-07-22T09:50:47;2.10;;;1.80;;
37051;SDS011;22964;52.272;13.356;2022-07-22T09:53:41;2.22;;;1.70;;
37051;SDS011;22964;52.272;13.356;2022-07-22T09:56:09;2.50;;;1.90;;
37051;SDS011;22964;52.272;13.356;2022-07-22T09:58:37;2.35;;;2.03;;
37051;SDS011;22964;52.272;13.356;2022-07-22T10:01:09;2.58;;;1.80;;
37051;SDS011;22964;52.272;13.356;2022-07-22T10:03:36;3.15;;;2.17;;
37051;SDS011;22964;52.272;13.356;2022-07-22T10:06:05;2.50;;;2.00;;
37051;SDS011;22964;52.272;13.356;2022-07-22T10:08:33;2.75;;;2.20;;
37051;SDS011;22964;52.272;13.356;2022-07-22T10:11:00;2.40;;;2.00;;
37051;SDS011;22964;52.272;13.356;2022-07-22T10:13:29;2.67;;;2.20;;
37051;SDS011;22964;52.272;13.356;2022-07-22T10:15:56;2.92;;;2.30;;
37051;SDS011;22964;52.272;13.356;2022-07-22T10:18:23;4.18;;;2.35;;
37051;SDS011;22964;52.272;13.356;2022-07-22T10:21:13;2.70;;;2.22;;
37051;SDS011;22964;52.272;13.356;2022-07-22T10:26:56;2.67;;;2.00;;
37051;SDS011;22964;52.272;13.356;2022-07-22T10:29:38;2.63;;;2.20;;
37051;SDS011;22964;52.272;13.356;2022-07-22T10:34:43;2.92;;;2.28;;
37051;SDS011;22964;52.272;13.356;2022-07-22T10:45:30;3.25;;;2.20;;
37051;SDS011;22964;52.272;13.356;2022-07-22T10:47:58;3.35;;;2.22;;
37051;SDS011;22964;52.272;13.356;2022-07-22T10:53:05;2.50;;;2.28;;
37051;SDS011;22964;52.272;13.356;2022-07-22T10:55:32;3.95;;;2.25;;
37051;SDS011;22964;52.272;13.356;2022-07-22T10:57:59;2.50;;;2.10;;
37051;SDS011;22964;52.272;13.356;2022-07-22T11:00:25;2.88;;;2.25;;
37051;SDS011;22964;52.272;13.356;2022-07-22T11:02:51;2.63;;;2.13;;
37051;SDS011;22964;52.272;13.356;2022-07-22T11:05:26;2.92;;;2.33;;
37051;SDS011;22964;52.272;13.356;2022-07-22T11:07:54;2.53;;;2.10;;
37051;SDS011;22964;52.272;13.356;2022-07-22T11:10:20;4.70;;;2.10;;
37051;SDS011;22964;52.272;13.356;2022-07-22T11:12:47;3.05;;;2.20;;
37051;SDS011;22964;52.272;13.356;2022-07-22T11:15:14;2.47;;;2.10;;
37051;SDS011;22964;52.272;13.356;2022-07-22T11:17:40;2.10;;;1.90;;
37051;SDS011;22964;52.272;13.356;2022-07-22T11:20:10;2.10;;;1.67;;
37051;SDS011;22964;52.272;13.356;2022-07-22T11:22:38;2.42;;;1.90;;
37051;SDS011;22964;52.272;13.356;2022-07-22T11:25:08;4.80;;;2.05;;
37051;SDS011;22964;52.272;13.356;2022-07-22T11:27:35;2.05;;;1.50;;
37051;SDS011;22964;52.272;13.356;2022-07-22T11:30:01;2.10;;;1.90;;
37051;SDS011;22964;52.272;13.356;2022-07-22T11:32:29;2.72;;;1.70;;
37051;SDS011;22964;52.272;13.356;2022-07-22T11:34:57;2.58;;;1.92;;
37051;SDS011;22964;52.272;13.356;2022-07-22T11:37:24;2.78;;;1.92;;
37051;SDS011;22964;52.272;13.356;2022-07-22T11:39:52;3.13;;;1.95;;
37051;SDS011;22964;52.272;13.356;2022-07-22T11:42:25;2.53;;;1.90;;
37051;SDS011;22964;52.272;13.356;2022-07-22T11:44:51;4.70;;;2.20;;
37051;SDS011;22964;52.272;13.356;2022-07-22T11:47:17;2.47;;;2.17;;
37051;SDS011;22964;52.272;13.356;2022-07-22T11:49:45;2.75;;;2.00;;
37051;SDS011;22964;52.272;13.356;2022-07-22T11:52:13;4.10;;;2.00;;
37051;SDS011;22964;52.272;13.356;2022-07-22T11:54:42;2.53;;;1.98;;
37051;SDS011;22964;52.272;13.356;2022-07-22T11:57:08;2.28;;;1.98;;
37051;SDS011;22964;52.272;13.356;2022-07-22T11:59:34;2.60;;;2.03;;
37051;SDS011;22964;52.272;13.356;2022-07-22T12:02:00;3.83;;;2.40;;
37051;SDS011;22964;52.272;13.356;2022-07-22T12:04:27;3.78;;;1.90;;
37051;SDS011;22964;52.272;13.356;2022-07-22T12:06:54;2.40;;;1.90;;
37051;SDS011;22964;52.272;13.356;2022-07-22T12:09:23;2.30;;;2.00;;
37051;SDS011;22964;52.272;13.356;2022-07-22T12:11:52;2.53;;;1.80;;
37051;SDS011;22964;52.272;13.356;2022-07-22T12:14:20;2.00;;;1.70;;
37051;SDS011;22964;52.272;13.356;2022-07-22T12:17:05;2.22;;;1.80;;
37051;SDS011;22964;52.272;13.356;2022-07-22T12:19:33;3.00;;;1.77;;
37051;SDS011;22964;52.272;13.356;2022-07-22T12:24:45;2.05;;;1.67;;
37051;SDS011;22964;52.272;13.356;2022-07-22T12:27:21;4.40;;;2.03;;
37051;SDS011;22964;52.272;13.356;2022-07-22T12:29:48;4.00;;;1.80;;
37051;SDS011;22964;52.272;13.356;2022-07-22T12:34:59;1.95;;;1.75;;
37051;SDS011;22964;52.272;13.356;2022-07-22T12:37:27;2.10;;;1.70;;
37051;SDS011;22964;52.272;13.356;2022-07-22T12:40:06;3.50;;;1.77;;
37051;SDS011;22964;52.272;13.356;2022-07-22T12:47:51;3.03;;;1.65;;
37051;SDS011;22964;52.272;13.356;2022-07-22T12:53:08;1.95;;;1.63;;
37051;SDS011;22964;52.272;13.356;2022-07-22T12:55:36;2.08;;;1.50;;
37051;SDS011;22964;52.272;13.356;2022-07-22T12:58:04;1.88;;;1.52;;
37051;SDS011;22964;52.272;13.356;2022-07-22T13:00:33;1.83;;;1.48;;
37051;SDS011;22964;52.272;13.356;2022-07-22T13:03:01;1.75;;;1.50;;
37051;SDS011;22964;52.272;13.356;2022-07-22T13:05:27;3.33;;;1.50;;
37051;SDS011;22964;52.272;13.356;2022-07-22T13:07:53;1.92;;;1.52;;
37051;SDS011;22964;52.272;13.356;2022-07-22T13:10:22;1.83;;;1.50;;
37051;SDS011;22964;52.272;13.356;2022-07-22T13:12:49;2.05;;;1.42;;
37051;SDS011;22964;52.272;13.356;2022-07-22T13:15:15;1.90;;;1.50;;
37051;SDS011;22964;52.272;13.356;2022-07-22T13:17:41;3.28;;;1.60;;
37051;SDS011;22964;52.272;13.356;2022-07-22T13:20:08;2.60;;;1.40;;
37051;SDS011;22964;52.272;13.356;2022-07-22T13:22:36;2.30;;;1.40;;
37051;SDS011;22964;52.272;13.356;2022-07-22T13:25:02;1.55;;;1.30;;
37051;SDS011;22964;52.272;13.356;2022-07-22T13:27:28;1.60;;;1.30;;
37051;SDS011;22964;52.272;13.356;2022-07-22T13:29:54;1.45;;;1.30;;
37051;SDS011;22964;52.272;13.356;2022-07-22T13:32:20;2.38;;;1.40;;
37051;SDS011;22964;52.272;13.356;2022-07-22T13:34:45;1.73;;;1.30;;
37051;SDS011;22964;52.272;13.356;2022-07-22T13:37:11;2.35;;;1.40;;
37051;SDS011;22964;52.272;13.356;2022-07-22T13:39:37;3.13;;;1.30;;
37051;SDS011;22964;52.272;13.356;2022-07-22T13:42:05;1.75;;;1.13;;
37051;SDS011;22964;52.272;13.356;2022-07-22T13:44:31;1.30;;;1.13;;
37051;SDS011;22964;52.272;13.356;2022-07-22T13:46:57;1.80;;;1.20;;
37051;SDS011;22964;52.272;13.356;2022-07-22T13:49:24;1.30;;;1.20;;
37051;SDS011;22964;52.272;13.356;2022-07-22T13:51:50;1.98;;;1.30;;
37051;SDS011;22964;52.272;13.356;2022-07-22T13:54:16;1.30;;;1.10;;
37051;SDS011;22964;52.272;13.356;2022-07-22T13:56:43;4.20;;;1.27;;
37051;SDS011;22964;52.272;13.356;2022-07-22T13:59:09;1.30;;;1.10;;
37051;SDS011;22964;52.272;13.356;2022-07-22T14:01:36;1.38;;;1.20;;
37051;SDS011;22964;52.272;13.356;2022-07-22T14:04:02;1.63;;;1.20;;
37051;SDS011;22964;52.272;13.356;2022-07-22T14:06:29;1.35;;;1.25;;
37051;SDS011;22964;52.272;13.356;2022-07-22T14:08:55;1.48;;;1.10;;
37051;SDS011;22964;52.272;13.356;2022-07-22T14:11:21;2.95;;;1.20;;
37051;SDS011;22964;52.272;13.356;2022-07-22T14:13:46;1.30;;;1.20;;
37051;SDS011;22964;52.272;13.356;2022-07-22T14:16:12;1.35;;;1.13;;
37051;SDS011;22964;52.272;13.356;2022-07-22T14:18:56;2.45;;;1.10;;
37051;SDS011;22964;52.272;13.356;2022-07-22T14:21:22;1.83;;;1.23;;
37051;SDS011;22964;52.272;13.356;2022-07-22T14:23:47;1.10;;;1.00;;
37051;SDS011;22964;52.272;13.356;2022-07-22T14:26:13;1.40;;;1.10;;
37051;SDS011;22964;52.272;13.356;2022-07-22T14:28:39;1.58;;;1.20;;
37051;SDS011;22964;52.272;13.356;2022-07-22T14:31:04;1.52;;;1.10;;
37051;SDS011;22964;52.272;13.356;2022-07-22T14:33:30;2.17;;;1.00;;
37051;SDS011;22964;52.272;13.356;2022-07-22T14:35:56;1.77;;;1.10;;
37051;SDS011;22964;52.272;13.356;2022-07-22T14:38:21;1.30;;;1.20;;
37051;SDS011;22964;52.272;13.356;2022-07-22T14:40:47;1.23;;;1.10;;
37051;SDS011;22964;52.272;13.356;2022-07-22T14:43:13;1.27;;;1.10;;
37051;SDS011;22964;52.272;13.356;2022-07-22T14:45:38;1.20;;;1.02;;
37051;SDS011;22964;52.272;13.356;2022-07-22T14:48:04;4.38;;;1.20;;
37051;SDS011;22964;52.272;13.356;2022-07-22T14:50:31;1.27;;;1.00;;
37051;SDS011;22964;52.272;13.356;2022-07-22T14:52:56;1.45;;;1.05;;
37051;SDS011;22964;52.272;13.356;2022-07-22T14:55:22;1.83;;;1.27;;
37051;SDS011;22964;52.272;13.356;2022-07-22T14:57:48;1.90;;;1.13;;
37051;SDS011;22964;52.272;13.356;2022-07-22T15:00:14;1.98;;;1.00;;
37051;SDS011;22964;52.272;13.356;2022-07-22T15:02:40;2.35;;;1.10;;
37051;SDS011;22964;52.272;13.356;2022-07-22T15:05:06;1.08;;;0.98;;
37051;SDS011;22964;52.272;13.356;2022-07-22T15:07:32;2.00;;;1.30;;
37051;SDS011;22964;52.272;13.356;2022-07-22T15:09:58;2.08;;;1.15;;
37051;SDS011;22964;52.272;13.356;2022-07-22T15:12:24;1.00;;;0.90;;